sensor_id;sensor_type;location;lat;lon;timestamp;temperature;humidity
78896;HTU21D;68284;59.124;37.910;2023-06-22T00:00:52;16.15;58.95
78896;HTU21D;68284;59.124;37.910;2023-06-22T00:03:19;16.17;58.98
78896;HTU21D;68284;59.124;37.910;2023-06-22T00:05:46;16.19;59.05
78896;HTU21D;68284;59.124;37.910;2023-06-22T00:08:13;16.20;59.05
78896;HTU21D;68284;59.124;37.910;2023-06-22T00:10:40;16.22;59.10
78896;HTU21D;68284;59.124;37.910;2023-06-22T00:13:07;16.24;59.19
78896;HTU21D;68284;59.124;37.910;2023-06-22T00:15:33;16.24;59.28
78896;HTU21D;68284;59.124;37.910;2023-06-22T00:18:00;16.25;59.41
78896;HTU21D;68284;59.124;37.910;2023-06-22T00:20:28;16.27;59.51
78896;HTU21D;68284;59.124;37.910;2023-06-22T00:22:56;16.28;59.60
78896;HTU21D;68284;59.124;37.910;2023-06-22T00:25:23;16.29;59.67
78896;HTU21D;68284;59.124;37.910;2023-06-22T00:27:50;16.29;59.80
78896;HTU21D;68284;59.124;37.910;2023-06-22T00:30:16;16.30;59.69
78896;HTU21D;68284;59.124;37.910;2023-06-22T00:32:45;16.29;59.42
78896;HTU21D;68284;59.124;37.910;2023-06-22T00:35:14;16.29;59.48
78896;HTU21D;68284;59.124;37.910;2023-06-22T00:37:40;16.30;59.57
78896;HTU21D;68284;59.124;37.910;2023-06-22T00:40:11;16.31;59.75
78896;HTU21D;68284;59.124;37.910;2023-06-22T00:42:38;16.30;59.84
78896;HTU21D;68284;59.124;37.910;2023-06-22T00:45:05;16.30;59.90
78896;HTU21D;68284;59.124;37.910;2023-06-22T00:47:36;16.34;59.97
78896;HTU21D;68284;59.124;37.910;2023-06-22T00:50:06;16.35;60.04
78896;HTU21D;68284;59.124;37.910;2023-06-22T00:52:33;16.39;60.05
78896;HTU21D;68284;59.124;37.910;2023-06-22T00:55:02;16.40;60.18
78896;HTU21D;68284;59.124;37.910;2023-06-22T00:57:28;16.37;60.23
78896;HTU21D;68284;59.124;37.910;2023-06-22T00:59:55;16.37;60.28
78896;HTU21D;68284;59.124;37.910;2023-06-22T01:02:22;16.35;60.36
78896;HTU21D;68284;59.124;37.910;2023-06-22T01:04:47;16.32;60.28
78896;HTU21D;68284;59.124;37.910;2023-06-22T01:07:26;16.29;60.24
78896;HTU21D;68284;59.124;37.910;2023-06-22T01:13:12;16.25;60.36
78896;HTU21D;68284;59.124;37.910;2023-06-22T01:15:45;16.25;60.38
78896;HTU21D;68284;59.124;37.910;2023-06-22T01:18:17;16.26;60.33
78896;HTU21D;68284;59.124;37.910;2023-06-22T01:20:44;16.27;60.25
78896;HTU21D;68284;59.124;37.910;2023-06-22T01:23:21;16.28;60.25
78896;HTU21D;68284;59.124;37.910;2023-06-22T01:28:43;16.30;60.28
78896;HTU21D;68284;59.124;37.910;2023-06-22T01:31:13;16.33;59.98
78896;HTU21D;68284;59.124;37.910;2023-06-22T01:33:42;16.34;59.93
78896;HTU21D;68284;59.124;37.910;2023-06-22T01:36:09;16.34;59.93
78896;HTU21D;68284;59.124;37.910;2023-06-22T01:38:37;16.35;59.93
78896;HTU21D;68284;59.124;37.910;2023-06-22T01:41:05;16.39;59.92
78896;HTU21D;68284;59.124;37.910;2023-06-22T01:43:32;16.39;59.95
78896;HTU21D;68284;59.124;37.910;2023-06-22T01:46:02;16.40;59.99
78896;HTU21D;68284;59.124;37.910;2023-06-22T01:48:29;16.39;60.03
78896;HTU21D;68284;59.124;37.910;2023-06-22T01:50:55;16.39;60.11
78896;HTU21D;68284;59.124;37.910;2023-06-22T01:53:22;16.37;60.06
78896;HTU21D;68284;59.124;37.910;2023-06-22T01:55:51;16.34;59.97
78896;HTU21D;68284;59.124;37.910;2023-06-22T01:58:20;16.34;60.20
78896;HTU21D;68284;59.124;37.910;2023-06-22T02:00:52;16.33;60.36
78896;HTU21D;68284;59.124;37.910;2023-06-22T02:03:22;16.33;60.42
78896;HTU21D;68284;59.124;37.910;2023-06-22T02:06:10;16.33;60.67
78896;HTU21D;68284;59.124;37.910;2023-06-22T02:08:48;16.31;60.51
78896;HTU21D;68284;59.124;37.910;2023-06-22T02:11:18;16.32;60.61
78896;HTU21D;68284;59.124;37.910;2023-06-22T02:13:46;16.31;60.72
78896;HTU21D;68284;59.124;37.910;2023-06-22T02:16:14;16.33;60.95
78896;HTU21D;68284;59.124;37.910;2023-06-22T02:18:49;16.36;61.29
78896;HTU21D;68284;59.124;37.910;2023-06-22T02:21:19;16.40;61.46
78896;HTU21D;68284;59.124;37.910;2023-06-22T02:23:46;16.41;61.73
78896;HTU21D;68284;59.124;37.910;2023-06-22T02:26:13;16.45;62.01
78896;HTU21D;68284;59.124;37.910;2023-06-22T02:28:39;16.47;62.14
78896;HTU21D;68284;59.124;37.910;2023-06-22T02:31:05;16.48;62.18
78896;HTU21D;68284;59.124;37.910;2023-06-22T02:33:32;16.50;62.15
78896;HTU21D;68284;59.124;37.910;2023-06-22T02:35:58;16.50;61.99
78896;HTU21D;68284;59.124;37.910;2023-06-22T02:38:24;16.51;61.74
78896;HTU21D;68284;59.124;37.910;2023-06-22T02:40:51;16.46;61.53
78896;HTU21D;68284;59.124;37.910;2023-06-22T02:43:18;16.42;61.60
78896;HTU21D;68284;59.124;37.910;2023-06-22T02:45:44;16.37;61.76
78896;HTU21D;68284;59.124;37.910;2023-06-22T02:48:11;16.33;61.95
78896;HTU21D;68284;59.124;37.910;2023-06-22T02:50:37;16.30;62.15
78896;HTU21D;68284;59.124;37.910;2023-06-22T02:53:05;16.26;62.43
78896;HTU21D;68284;59.124;37.910;2023-06-22T02:55:35;16.24;62.68
78896;HTU21D;68284;59.124;37.910;2023-06-22T02:58:01;16.21;62.71
78896;HTU21D;68284;59.124;37.910;2023-06-22T03:00:33;16.20;62.61
78896;HTU21D;68284;59.124;37.910;2023-06-22T03:02:59;16.20;62.94
78896;HTU21D;68284;59.124;37.910;2023-06-22T03:05:25;16.18;63.15
78896;HTU21D;68284;59.124;37.910;2023-06-22T03:07:53;16.19;63.31
78896;HTU21D;68284;59.124;37.910;2023-06-22T03:10:19;16.19;63.29
78896;HTU21D;68284;59.124;37.910;2023-06-22T03:12:46;16.19;63.35
78896;HTU21D;68284;59.124;37.910;2023-06-22T03:15:13;16.18;63.83
78896;HTU21D;68284;59.124;37.910;2023-06-22T03:17:40;16.16;64.25
78896;HTU21D;68284;59.124;37.910;2023-06-22T03:20:09;16.14;64.62
78896;HTU21D;68284;59.124;37.910;2023-06-22T03:22:40;16.12;64.99
78896;HTU21D;68284;59.124;37.910;2023-06-22T03:25:08;16.10;65.27
78896;HTU21D;68284;59.124;37.910;2023-06-22T03:27:42;16.05;65.50
78896;HTU21D;68284;59.124;37.910;2023-06-22T03:30:11;16.04;65.68
78896;HTU21D;68284;59.124;37.910;2023-06-22T03:32:38;16.02;65.84
78896;HTU21D;68284;59.124;37.910;2023-06-22T03:35:06;16.01;66.02
78896;HTU21D;68284;59.124;37.910;2023-06-22T03:37:34;16.00;66.22
78896;HTU21D;68284;59.124;37.910;2023-06-22T03:40:00;15.99;66.50
78896;HTU21D;68284;59.124;37.910;2023-06-22T03:42:29;15.97;66.70
78896;HTU21D;68284;59.124;37.910;2023-06-22T03:44:55;15.93;66.88
78896;HTU21D;68284;59.124;37.910;2023-06-22T03:47:22;15.90;66.92
78896;HTU21D;68284;59.124;37.910;2023-06-22T03:49:48;15.85;66.79
78896;HTU21D;68284;59.124;37.910;2023-06-22T03:52:14;15.82;66.99
78896;HTU21D;68284;59.124;37.910;2023-06-22T03:54:40;15.76;66.94
78896;HTU21D;68284;59.124;37.910;2023-06-22T03:57:06;15.74;67.47
78896;HTU21D;68284;59.124;37.910;2023-06-22T03:59:32;15.71;67.88
78896;HTU21D;68284;59.124;37.910;2023-06-22T04:01:58;15.70;68.08
78896;HTU21D;68284;59.124;37.910;2023-06-22T04:04:24;15.65;67.90
78896;HTU21D;68284;59.124;37.910;2023-06-22T04:06:50;15.60;68.42
78896;HTU21D;68284;59.124;37.910;2023-06-22T04:09:17;15.58;68.85
78896;HTU21D;68284;59.124;37.910;2023-06-22T04:11:43;15.57;69.14
78896;HTU21D;68284;59.124;37.910;2023-06-22T04:14:09;15.60;69.38
78896;HTU21D;68284;59.124;37.910;2023-06-22T04:16:36;15.63;69.46
78896;HTU21D;68284;59.124;37.910;2023-06-22T04:19:02;15.68;69.55
78896;HTU21D;68284;59.124;37.910;2023-06-22T04:21:28;15.72;69.68
78896;HTU21D;68284;59.124;37.910;2023-06-22T04:23:54;15.75;69.45
78896;HTU21D;68284;59.124;37.910;2023-06-22T04:26:20;15.80;69.10
78896;HTU21D;68284;59.124;37.910;2023-06-22T04:28:47;15.83;69.09
78896;HTU21D;68284;59.124;37.910;2023-06-22T04:31:17;15.82;68.91
78896;HTU21D;68284;59.124;37.910;2023-06-22T04:33:45;15.83;69.26
78896;HTU21D;68284;59.124;37.910;2023-06-22T04:36:11;15.86;69.45
78896;HTU21D;68284;59.124;37.910;2023-06-22T04:38:39;15.87;69.75
78896;HTU21D;68284;59.124;37.910;2023-06-22T04:41:06;15.87;69.99
78896;HTU21D;68284;59.124;37.910;2023-06-22T04:43:33;15.91;70.19
78896;HTU21D;68284;59.124;37.910;2023-06-22T04:46:00;15.95;70.29
78896;HTU21D;68284;59.124;37.910;2023-06-22T04:48:29;16.01;70.38
78896;HTU21D;68284;59.124;37.910;2023-06-22T04:50:59;16.07;70.43
78896;HTU21D;68284;59.124;37.910;2023-06-22T04:53:30;16.14;70.45
78896;HTU21D;68284;59.124;37.910;2023-06-22T04:55:56;16.24;70.38
78896;HTU21D;68284;59.124;37.910;2023-06-22T04:58:23;16.31;70.25
78896;HTU21D;68284;59.124;37.910;2023-06-22T05:00:49;16.34;70.31
78896;HTU21D;68284;59.124;37.910;2023-06-22T05:03:17;16.39;70.36
78896;HTU21D;68284;59.124;37.910;2023-06-22T05:05:44;16.40;70.48
78896;HTU21D;68284;59.124;37.910;2023-06-22T05:08:11;16.41;70.68
78896;HTU21D;68284;59.124;37.910;2023-06-22T05:10:37;16.41;70.88
78896;HTU21D;68284;59.124;37.910;2023-06-22T05:13:04;16.37;71.06
78896;HTU21D;68284;59.124;37.910;2023-06-22T05:15:30;16.34;71.16
78896;HTU21D;68284;59.124;37.910;2023-06-22T05:18:03;16.30;71.19
78896;HTU21D;68284;59.124;37.910;2023-06-22T05:20:31;16.27;71.35
78896;HTU21D;68284;59.124;37.910;2023-06-22T05:22:57;16.22;71.51
78896;HTU21D;68284;59.124;37.910;2023-06-22T05:25:23;16.19;71.54
78896;HTU21D;68284;59.124;37.910;2023-06-22T05:27:49;16.19;71.36
78896;HTU21D;68284;59.124;37.910;2023-06-22T05:30:17;16.16;71.13
78896;HTU21D;68284;59.124;37.910;2023-06-22T05:32:44;16.15;71.29
78896;HTU21D;68284;59.124;37.910;2023-06-22T05:35:10;16.16;71.33
78896;HTU21D;68284;59.124;37.910;2023-06-22T05:37:36;16.19;71.15
78896;HTU21D;68284;59.124;37.910;2023-06-22T05:40:03;16.24;71.42
78896;HTU21D;68284;59.124;37.910;2023-06-22T05:42:30;16.27;71.56
78896;HTU21D;68284;59.124;37.910;2023-06-22T05:44:56;16.27;71.64
78896;HTU21D;68284;59.124;37.910;2023-06-22T05:47:24;16.24;71.68
78896;HTU21D;68284;59.124;37.910;2023-06-22T05:49:50;16.25;71.83
78896;HTU21D;68284;59.124;37.910;2023-06-22T05:52:17;16.25;71.93
78896;HTU21D;68284;59.124;37.910;2023-06-22T05:54:43;16.22;72.00
78896;HTU21D;68284;59.124;37.910;2023-06-22T05:57:09;16.21;72.19
78896;HTU21D;68284;59.124;37.910;2023-06-22T05:59:35;16.20;72.30
78896;HTU21D;68284;59.124;37.910;2023-06-22T06:02:01;16.22;72.15
78896;HTU21D;68284;59.124;37.910;2023-06-22T06:04:28;16.22;71.95
78896;HTU21D;68284;59.124;37.910;2023-06-22T06:06:54;16.24;72.00
78896;HTU21D;68284;59.124;37.910;2023-06-22T06:09:20;16.22;71.85
78896;HTU21D;68284;59.124;37.910;2023-06-22T06:11:46;16.22;72.21
78896;HTU21D;68284;59.124;37.910;2023-06-22T06:14:12;16.20;72.57
78896;HTU21D;68284;59.124;37.910;2023-06-22T06:16:38;16.18;72.85
78896;HTU21D;68284;59.124;37.910;2023-06-22T06:19:04;16.16;73.21
78896;HTU21D;68284;59.124;37.910;2023-06-22T06:21:30;16.15;73.35
78896;HTU21D;68284;59.124;37.910;2023-06-22T06:23:57;16.16;73.54
78896;HTU21D;68284;59.124;37.910;2023-06-22T06:26:24;16.16;73.66
78896;HTU21D;68284;59.124;37.910;2023-06-22T06:28:55;16.19;73.72
78896;HTU21D;68284;59.124;37.910;2023-06-22T06:31:21;16.25;73.70
78896;HTU21D;68284;59.124;37.910;2023-06-22T06:33:47;16.31;73.77
78896;HTU21D;68284;59.124;37.910;2023-06-22T06:36:13;16.36;73.50
78896;HTU21D;68284;59.124;37.910;2023-06-22T06:38:39;16.42;73.27
78896;HTU21D;68284;59.124;37.910;2023-06-22T06:41:06;16.49;73.57
78896;HTU21D;68284;59.124;37.910;2023-06-22T06:43:32;16.58;73.50
78896;HTU21D;68284;59.124;37.910;2023-06-22T06:45:59;16.66;73.53
78896;HTU21D;68284;59.124;37.910;2023-06-22T06:48:25;16.73;73.68
78896;HTU21D;68284;59.124;37.910;2023-06-22T06:50:51;16.77;73.49
78896;HTU21D;68284;59.124;37.910;2023-06-22T06:53:18;16.78;73.42
78896;HTU21D;68284;59.124;37.910;2023-06-22T06:55:44;16.78;73.32
78896;HTU21D;68284;59.124;37.910;2023-06-22T06:58:11;16.78;73.15
78896;HTU21D;68284;59.124;37.910;2023-06-22T07:00:39;16.75;73.41
78896;HTU21D;68284;59.124;37.910;2023-06-22T07:03:06;16.76;73.53
78896;HTU21D;68284;59.124;37.910;2023-06-22T07:05:33;16.74;73.65
78896;HTU21D;68284;59.124;37.910;2023-06-22T07:07:58;16.78;73.61
78896;HTU21D;68284;59.124;37.910;2023-06-22T07:10:25;16.82;73.38
78896;HTU21D;68284;59.124;37.910;2023-06-22T07:12:51;16.89;73.37
78896;HTU21D;68284;59.124;37.910;2023-06-22T07:15:17;16.99;73.12
78896;HTU21D;68284;59.124;37.910;2023-06-22T07:17:44;17.10;72.93
78896;HTU21D;68284;59.124;37.910;2023-06-22T07:20:11;17.23;72.54
78896;HTU21D;68284;59.124;37.910;2023-06-22T07:22:42;17.33;72.07
78896;HTU21D;68284;59.124;37.910;2023-06-22T07:25:09;17.41;71.78
78896;HTU21D;68284;59.124;37.910;2023-06-22T07:27:38;17.48;71.49
78896;HTU21D;68284;59.124;37.910;2023-06-22T07:30:10;17.45;71.30
78896;HTU21D;68284;59.124;37.910;2023-06-22T07:32:36;17.38;71.22
78896;HTU21D;68284;59.124;37.910;2023-06-22T07:35:03;17.38;71.33
78896;HTU21D;68284;59.124;37.910;2023-06-22T07:37:30;17.44;71.27
78896;HTU21D;68284;59.124;37.910;2023-06-22T07:39:59;17.52;71.15
78896;HTU21D;68284;59.124;37.910;2023-06-22T07:42:25;17.62;70.77
78896;HTU21D;68284;59.124;37.910;2023-06-22T07:44:52;17.67;70.59
78896;HTU21D;68284;59.124;37.910;2023-06-22T07:47:20;17.72;70.38
78896;HTU21D;68284;59.124;37.910;2023-06-22T07:49:46;17.74;70.10
78896;HTU21D;68284;59.124;37.910;2023-06-22T07:52:12;17.70;70.03
78896;HTU21D;68284;59.124;37.910;2023-06-22T07:54:38;17.67;69.98
78896;HTU21D;68284;59.124;37.910;2023-06-22T07:57:05;17.61;69.94
78896;HTU21D;68284;59.124;37.910;2023-06-22T07:59:31;17.61;69.90
78896;HTU21D;68284;59.124;37.910;2023-06-22T08:01:57;17.60;69.87
78896;HTU21D;68284;59.124;37.910;2023-06-22T08:04:23;17.61;69.75
78896;HTU21D;68284;59.124;37.910;2023-06-22T08:06:52;17.60;69.68
78896;HTU21D;68284;59.124;37.910;2023-06-22T08:09:18;17.59;69.75
78896;HTU21D;68284;59.124;37.910;2023-06-22T08:11:44;17.58;69.71
78896;HTU21D;68284;59.124;37.910;2023-06-22T08:14:10;17.61;69.54
78896;HTU21D;68284;59.124;37.910;2023-06-22T08:16:36;17.61;69.56
78896;HTU21D;68284;59.124;37.910;2023-06-22T08:19:02;17.60;69.50
78896;HTU21D;68284;59.124;37.910;2023-06-22T08:21:28;17.60;69.41
78896;HTU21D;68284;59.124;37.910;2023-06-22T08:23:54;17.59;69.23
78896;HTU21D;68284;59.124;37.910;2023-06-22T08:26:23;17.62;68.95
78896;HTU21D;68284;59.124;37.910;2023-06-22T08:28:49;17.61;68.73
78896;HTU21D;68284;59.124;37.910;2023-06-22T08:31:15;17.60;68.47
78896;HTU21D;68284;59.124;37.910;2023-06-22T08:33:41;17.59;68.20
78896;HTU21D;68284;59.124;37.910;2023-06-22T08:36:09;17.62;67.94
78896;HTU21D;68284;59.124;37.910;2023-06-22T08:38:38;17.69;67.52
78896;HTU21D;68284;59.124;37.910;2023-06-22T08:41:04;17.75;67.36
78896;HTU21D;68284;59.124;37.910;2023-06-22T08:43:30;17.78;67.15
78896;HTU21D;68284;59.124;37.910;2023-06-22T08:45:56;17.79;67.09
78896;HTU21D;68284;59.124;37.910;2023-06-22T08:48:23;17.74;67.17
78896;HTU21D;68284;59.124;37.910;2023-06-22T08:50:54;17.73;67.16
78896;HTU21D;68284;59.124;37.910;2023-06-22T08:53:21;17.70;67.06
78896;HTU21D;68284;59.124;37.910;2023-06-22T08:55:47;17.65;67.04
78896;HTU21D;68284;59.124;37.910;2023-06-22T08:58:14;17.63;66.95
78896;HTU21D;68284;59.124;37.910;2023-06-22T09:00:39;17.62;66.92
78896;HTU21D;68284;59.124;37.910;2023-06-22T09:03:06;17.62;66.72
78896;HTU21D;68284;59.124;37.910;2023-06-22T09:05:32;17.66;66.44
78896;HTU21D;68284;59.124;37.910;2023-06-22T09:08:00;17.77;66.22
78896;HTU21D;68284;59.124;37.910;2023-06-22T09:10:26;17.90;65.94
78896;HTU21D;68284;59.124;37.910;2023-06-22T09:12:54;18.02;65.75
78896;HTU21D;68284;59.124;37.910;2023-06-22T09:15:20;18.12;65.44
78896;HTU21D;68284;59.124;37.910;2023-06-22T09:17:47;18.24;65.12
78896;HTU21D;68284;59.124;37.910;2023-06-22T09:20:12;18.38;64.82
78896;HTU21D;68284;59.124;37.910;2023-06-22T09:22:39;18.53;64.46
78896;HTU21D;68284;59.124;37.910;2023-06-22T09:25:06;18.68;64.01
78896;HTU21D;68284;59.124;37.910;2023-06-22T09:27:33;18.85;63.74
78896;HTU21D;68284;59.124;37.910;2023-06-22T09:29:59;19.05;63.19
78896;HTU21D;68284;59.124;37.910;2023-06-22T09:32:25;19.22;62.70
78896;HTU21D;68284;59.124;37.910;2023-06-22T09:34:52;19.35;62.35
78896;HTU21D;68284;59.124;37.910;2023-06-22T09:37:19;19.46;61.88
78896;HTU21D;68284;59.124;37.910;2023-06-22T09:39:45;19.60;61.70
78896;HTU21D;68284;59.124;37.910;2023-06-22T09:42:11;19.72;61.60
78896;HTU21D;68284;59.124;37.910;2023-06-22T09:44:39;19.87;61.23
78896;HTU21D;68284;59.124;37.910;2023-06-22T09:47:05;20.07;60.75
78896;HTU21D;68284;59.124;37.910;2023-06-22T09:49:32;20.22;60.14
78896;HTU21D;68284;59.124;37.910;2023-06-22T09:51:58;20.32;59.77
78896;HTU21D;68284;59.124;37.910;2023-06-22T09:54:24;20.35;59.54
78896;HTU21D;68284;59.124;37.910;2023-06-22T09:56:50;20.36;59.10
78896;HTU21D;68284;59.124;37.910;2023-06-22T09:59:16;20.25;59.09
78896;HTU21D;68284;59.124;37.910;2023-06-22T10:01:43;20.12;59.33
78896;HTU21D;68284;59.124;37.910;2023-06-22T10:04:09;20.02;59.28
78896;HTU21D;68284;59.124;37.910;2023-06-22T10:06:36;19.98;59.04
78896;HTU21D;68284;59.124;37.910;2023-06-22T10:09:02;19.91;58.96
78896;HTU21D;68284;59.124;37.910;2023-06-22T10:11:30;19.90;58.86
78896;HTU21D;68284;59.124;37.910;2023-06-22T10:13:57;19.94;58.85
78896;HTU21D;68284;59.124;37.910;2023-06-22T10:16:29;20.01;58.60
78896;HTU21D;68284;59.124;37.910;2023-06-22T10:18:56;20.12;58.13
78896;HTU21D;68284;59.124;37.910;2023-06-22T10:21:23;20.24;57.58
78896;HTU21D;68284;59.124;37.910;2023-06-22T10:23:51;20.32;57.06
78896;HTU21D;68284;59.124;37.910;2023-06-22T10:26:17;20.28;56.97
78896;HTU21D;68284;59.124;37.910;2023-06-22T10:28:43;20.24;57.06
78896;HTU21D;68284;59.124;37.910;2023-06-22T10:31:09;20.18;57.11
78896;HTU21D;68284;59.124;37.910;2023-06-22T10:33:36;20.06;57.32
78896;HTU21D;68284;59.124;37.910;2023-06-22T10:36:02;19.87;57.62
78896;HTU21D;68284;59.124;37.910;2023-06-22T10:38:28;19.63;58.00
78896;HTU21D;68284;59.124;37.910;2023-06-22T10:40:54;19.45;58.35
78896;HTU21D;68284;59.124;37.910;2023-06-22T10:43:20;19.38;58.63
78896;HTU21D;68284;59.124;37.910;2023-06-22T10:45:47;19.31;58.83
78896;HTU21D;68284;59.124;37.910;2023-06-22T10:48:13;19.23;59.12
78896;HTU21D;68284;59.124;37.910;2023-06-22T10:50:40;19.18;59.21
78896;HTU21D;68284;59.124;37.910;2023-06-22T10:53:06;19.14;59.30
78896;HTU21D;68284;59.124;37.910;2023-06-22T10:55:32;19.11;59.33
78896;HTU21D;68284;59.124;37.910;2023-06-22T10:57:58;19.11;59.48
78896;HTU21D;68284;59.124;37.910;2023-06-22T11:00:24;19.12;59.62
78896;HTU21D;68284;59.124;37.910;2023-06-22T11:02:51;19.11;59.66
78896;HTU21D;68284;59.124;37.910;2023-06-22T11:05:17;19.09;59.78
78896;HTU21D;68284;59.124;37.910;2023-06-22T11:07:43;19.03;59.87
78896;HTU21D;68284;59.124;37.910;2023-06-22T11:10:11;18.97;60.15
78896;HTU21D;68284;59.124;37.910;2023-06-22T11:12:37;18.89;60.50
78896;HTU21D;68284;59.124;37.910;2023-06-22T11:15:04;18.84;60.72
78896;HTU21D;68284;59.124;37.910;2023-06-22T11:17:31;18.85;60.94
78896;HTU21D;68284;59.124;37.910;2023-06-22T11:19:58;18.93;60.79
78896;HTU21D;68284;59.124;37.910;2023-06-22T11:22:30;18.98;60.58
78896;HTU21D;68284;59.124;37.910;2023-06-22T11:24:59;19.02;60.58
78896;HTU21D;68284;59.124;37.910;2023-06-22T11:27:26;19.03;60.65
78896;HTU21D;68284;59.124;37.910;2023-06-22T11:29:52;19.05;60.64
78896;HTU21D;68284;59.124;37.910;2023-06-22T11:32:19;19.02;60.76
78896;HTU21D;68284;59.124;37.910;2023-06-22T11:34:47;19.00;60.77
78896;HTU21D;68284;59.124;37.910;2023-06-22T11:37:15;18.97;60.78
78896;HTU21D;68284;59.124;37.910;2023-06-22T11:39:42;18.99;60.96
78896;HTU21D;68284;59.124;37.910;2023-06-22T11:42:09;19.05;60.82
78896;HTU21D;68284;59.124;37.910;2023-06-22T11:44:36;19.08;60.73
78896;HTU21D;68284;59.124;37.910;2023-06-22T11:47:02;19.09;60.71
78896;HTU21D;68284;59.124;37.910;2023-06-22T11:49:30;19.06;60.70
78896;HTU21D;68284;59.124;37.910;2023-06-22T11:51:57;18.95;60.90
78896;HTU21D;68284;59.124;37.910;2023-06-22T11:54:23;18.84;61.20
78896;HTU21D;68284;59.124;37.910;2023-06-22T11:56:49;18.79;61.39
78896;HTU21D;68284;59.124;37.910;2023-06-22T11:59:15;18.78;61.55
78896;HTU21D;68284;59.124;37.910;2023-06-22T12:01:42;18.82;61.65
78896;HTU21D;68284;59.124;37.910;2023-06-22T12:04:08;18.85;61.80
78896;HTU21D;68284;59.124;37.910;2023-06-22T12:06:38;18.95;61.71
78896;HTU21D;68284;59.124;37.910;2023-06-22T12:09:07;19.11;61.54
78896;HTU21D;68284;59.124;37.910;2023-06-22T12:11:34;19.29;60.99
78896;HTU21D;68284;59.124;37.910;2023-06-22T12:14:00;19.52;60.49
78896;HTU21D;68284;59.124;37.910;2023-06-22T12:16:30;19.73;59.90
78896;HTU21D;68284;59.124;37.910;2023-06-22T12:18:57;19.90;59.61
78896;HTU21D;68284;59.124;37.910;2023-06-22T12:21:23;20.04;59.33
78896;HTU21D;68284;59.124;37.910;2023-06-22T12:23:49;20.12;59.15
78896;HTU21D;68284;59.124;37.910;2023-06-22T12:26:16;20.22;58.67
78896;HTU21D;68284;59.124;37.910;2023-06-22T12:28:42;20.37;58.19
78896;HTU21D;68284;59.124;37.910;2023-06-22T12:31:08;20.53;57.83
78896;HTU21D;68284;59.124;37.910;2023-06-22T12:33:35;20.71;57.40
78896;HTU21D;68284;59.124;37.910;2023-06-22T12:36:01;20.81;57.17
78896;HTU21D;68284;59.124;37.910;2023-06-22T12:38:27;20.92;56.92
78896;HTU21D;68284;59.124;37.910;2023-06-22T12:40:53;21.03;56.48
78896;HTU21D;68284;59.124;37.910;2023-06-22T12:43:20;21.08;56.22
78896;HTU21D;68284;59.124;37.910;2023-06-22T12:45:46;21.10;56.03
78896;HTU21D;68284;59.124;37.910;2023-06-22T12:48:12;21.08;56.17
78896;HTU21D;68284;59.124;37.910;2023-06-22T12:50:38;21.10;56.16
78896;HTU21D;68284;59.124;37.910;2023-06-22T12:53:05;21.08;56.09
78896;HTU21D;68284;59.124;37.910;2023-06-22T12:55:32;21.07;55.97
78896;HTU21D;68284;59.124;37.910;2023-06-22T12:57:58;21.10;55.90
78896;HTU21D;68284;59.124;37.910;2023-06-22T13:00:26;21.14;55.78
78896;HTU21D;68284;59.124;37.910;2023-06-22T13:02:55;21.21;55.42
78896;HTU21D;68284;59.124;37.910;2023-06-22T13:05:23;21.31;55.26
78896;HTU21D;68284;59.124;37.910;2023-06-22T13:07:51;21.38;55.18
78896;HTU21D;68284;59.124;37.910;2023-06-22T13:10:19;21.51;55.03
78896;HTU21D;68284;59.124;37.910;2023-06-22T13:12:48;21.67;54.97
78896;HTU21D;68284;59.124;37.910;2023-06-22T13:15:15;21.99;54.56
78896;HTU21D;68284;59.124;37.910;2023-06-22T13:17:42;22.36;53.78
78896;HTU21D;68284;59.124;37.910;2023-06-22T13:20:09;22.57;53.08
78896;HTU21D;68284;59.124;37.910;2023-06-22T13:22:37;22.71;52.78
78896;HTU21D;68284;59.124;37.910;2023-06-22T13:25:06;22.69;52.61
78896;HTU21D;68284;59.124;37.910;2023-06-22T13:27:33;22.60;52.72
78896;HTU21D;68284;59.124;37.910;2023-06-22T13:29:59;22.51;52.88
78896;HTU21D;68284;59.124;37.910;2023-06-22T13:32:25;22.34;53.00
78896;HTU21D;68284;59.124;37.910;2023-06-22T13:34:53;22.21;53.05
78896;HTU21D;68284;59.124;37.910;2023-06-22T13:37:19;22.02;53.36
78896;HTU21D;68284;59.124;37.910;2023-06-22T13:39:45;21.82;53.59
78896;HTU21D;68284;59.124;37.910;2023-06-22T13:42:12;21.65;53.84
78896;HTU21D;68284;59.124;37.910;2023-06-22T13:44:38;21.63;54.23
78896;HTU21D;68284;59.124;37.910;2023-06-22T13:47:04;21.91;53.89
78896;HTU21D;68284;59.124;37.910;2023-06-22T13:49:33;22.23;53.29
78896;HTU21D;68284;59.124;37.910;2023-06-22T13:52:00;22.63;52.58
78896;HTU21D;68284;59.124;37.910;2023-06-22T13:54:27;23.07;51.87
78896;HTU21D;68284;59.124;37.910;2023-06-22T13:56:53;23.76;50.69
78896;HTU21D;68284;59.124;37.910;2023-06-22T13:59:19;24.49;49.14
78896;HTU21D;68284;59.124;37.910;2023-06-22T14:01:46;25.10;47.89
78896;HTU21D;68284;59.124;37.910;2023-06-22T14:04:12;25.48;46.70
78896;HTU21D;68284;59.124;37.910;2023-06-22T14:06:38;25.52;46.01
78896;HTU21D;68284;59.124;37.910;2023-06-22T14:09:05;25.44;46.02
78896;HTU21D;68284;59.124;37.910;2023-06-22T14:11:31;25.78;45.39
78896;HTU21D;68284;59.124;37.910;2023-06-22T14:13:57;26.07;44.67
78896;HTU21D;68284;59.124;37.910;2023-06-22T14:16:25;26.30;44.10
78896;HTU21D;68284;59.124;37.910;2023-06-22T14:18:51;26.53;43.29
78896;HTU21D;68284;59.124;37.910;2023-06-22T14:21:17;26.55;43.04
78896;HTU21D;68284;59.124;37.910;2023-06-22T14:23:44;26.58;42.86
78896;HTU21D;68284;59.124;37.910;2023-06-22T14:26:18;26.57;42.45
78896;HTU21D;68284;59.124;37.910;2023-06-22T14:28:48;26.49;42.51
78896;HTU21D;68284;59.124;37.910;2023-06-22T14:31:16;26.81;41.94
78896;HTU21D;68284;59.124;37.910;2023-06-22T14:33:46;27.35;40.99
78896;HTU21D;68284;59.124;37.910;2023-06-22T14:36:12;27.61;40.49
78896;HTU21D;68284;59.124;37.910;2023-06-22T14:38:38;27.59;40.23
78896;HTU21D;68284;59.124;37.910;2023-06-22T14:41:04;27.44;40.42
78896;HTU21D;68284;59.124;37.910;2023-06-22T14:43:33;27.50;40.16
78896;HTU21D;68284;59.124;37.910;2023-06-22T14:46:00;27.88;39.46
78896;HTU21D;68284;59.124;37.910;2023-06-22T14:48:26;28.09;38.98
78896;HTU21D;68284;59.124;37.910;2023-06-22T14:50:53;28.42;38.37
78896;HTU21D;68284;59.124;37.910;2023-06-22T14:53:20;28.41;38.27
78896;HTU21D;68284;59.124;37.910;2023-06-22T14:55:46;28.10;38.62
78896;HTU21D;68284;59.124;37.910;2023-06-22T14:58:12;27.83;39.05
78896;HTU21D;68284;59.124;37.910;2023-06-22T15:00:38;27.64;39.24
78896;HTU21D;68284;59.124;37.910;2023-06-22T15:03:04;27.70;39.03
78896;HTU21D;68284;59.124;37.910;2023-06-22T15:05:32;28.04;38.42
78896;HTU21D;68284;59.124;37.910;2023-06-22T15:07:58;28.02;38.15